Jilin, China
Current Conditions -  °F | °C
As of 8:00 PM on Wednesday 28 Jan 2015 (Local Time) from ZYCC Reporting Station
Haze Haze  
Wind Chill: -9°   Ceiling: Unl
Heat Index:   Visibility: 3mi
Dew Point: -9°   Wind: 7mph
Humidity: 56%   Direction: 190°S
Pressure: 30.48"   Gusts: NA
Location:  43.85°N, 126.55°E
Report Text: ZYCC 281200Z 19003MPS 5000 BR NSC M16/M23 Q1032 NOSIG
Loading
Personal Weather Stations






























Interactive Weather Map New forecast layout! Learn more

10-Day Weather Forecast

Advertisements
Track Severe Weather on mobile